Briefing drone pour Plombieres-les-dijon

Rechercher une autre localisation

Conditions de vol :


Nous sommes le : Lundi 02 août 2021
Il est 22:54 UTC (00:54 LT)

Lever de soleil : 03:54 UTC (05:54 LT)
Coucher de soleil : 19:38 UTC (21:38 LT)

Météo

L'essentiel des conditions de vol

VIGILANCE MÉTÉO FRANCE - Côte-dOr (21)
Vigilance Jaune : Orages
CARTE TEMSI
CARTES DES FRONTS
METAR de LFSD
LFSD 012230Z AUTO 24001KT CAVOK 14/12 Q1015

Date d'émission: 01/08/2021
Heure d'émission: 22:30 UTC
Vent: 240° pour 1 KT (2 km/h)
Visibilité horizontale: > 10 km
Plafond : Plafond et visibilité OK (CAVOK)
Température: 14 °C
Point de rosée: 12 °C
Humidité: 88%
Pression (QNH): 1015 hPa
TAF de LFSD
LFSD 010600Z 0100/0124 CNL

Conditions prévues :

Heure d'émission : Bulletin éffectué le 01 à 00:00 UTC
Prévision : Valide du 01 a 00:00 UTC au 01 a 23:59 UTC
Nuages : à 0ft (0 m)
WEBCAM POUR PLOMBIERES-LES-DIJON

Réglementation

Voler en sécurité

CARTES AERONAUTIQUE 1/500.000
CARTES VAC (LFSD)
SUP AIP




Chargement des AIP...
NOTAM (PLOMBIERES-LES-DIJON + Terrain à proximité / FIR )




Chargement des NOTAMS...
CONTACT PREFECTURE 21
Côte-dOr (21) : pref-drone@cote-dor.gouv.fr


Avertissement : Les données mises à disposition sont indicatives. Oxygène Drone ne pourra être tenu responsable de dégâts causés aux biens et aux personnes.